Aviation Digital Data Service (ADDS)

Output produced by METARs form (0158 UTC 26 April 2017)
found at http://www.aviationweather.gov/adds/metars/
 
METAR text: KSAR 260155Z AUTO 16004KT 10SM CLR 21/11 A2955 RMK AO2 T02090109
Conditions at: KSAR (SPARTA , IL, US) observed 0155 UTC 26 April 2017
Temperature: 20.9°C (70°F)
Dewpoint: 10.9°C (52°F) [RH = 53%]
Pressure (altimeter): 29.55 inches Hg (1000.8 mb)
Winds: from the SSE (160 degrees) at 5 MPH (4 knots; 2.1 m/s)
Visibility: 10 or more miles (16+ km)
Ceiling: at least 12,000 feet AGL
Clouds: sky clear below 12,000 feet AGL
Weather: automated observation with no human augmentation;
there may or may not be significant weather present at this time